Time;durP1;ratioP1;P1;durP2;ratioP2;P2;SDS_P1;SDS_P2;PMS_P1;PMS_P2;Temp;Humidity;BMP_temperature;BMP_pressure;BME280_temperature;BME280_humidity;BME280_pressure;Samples;Min_cycle;Max_cycle;Signal;HPM_P1;HPM_P2
2023/10/20 00:01:42;;;;;;;6.90;1.90;;;;;;;20.63;67.55;99738.77;109972;1279;21895;-59
2023/10/20 00:04:08;;;;;;;4.40;1.60;;;;;;;20.63;67.76;99742.46;109971;1279;21961;-71
2023/10/20 00:06:34;;;;;;;6.50;1.50;;;;;;;20.64;68.06;99738.84;109970;1276;22051;-59
2023/10/20 00:08:59;;;;;;;7.50;1.40;;;;;;;20.65;67.95;99733.81;109955;1286;22002;-73
2023/10/20 00:11:28;;;;;;;7.30;1.50;;;;;;;20.65;67.57;99732.73;109916;1276;21926;-72
2023/10/20 00:13:53;;;;;;;7.00;1.90;;;;;;;20.67;67.35;99733.69;109939;1286;21863;-60
2023/10/20 00:16:26;;;;;;;5.50;1.40;;;;;;;20.68;67.59;99726.38;109958;1280;21933;-69
2023/10/20 00:18:51;;;;;;;9.20;2.10;;;;;;;20.68;67.73;99721.90;109949;1280;21938;-59
2023/10/20 00:21:18;;;;;;;6.10;1.30;;;;;;;20.68;67.76;99719.61;109972;1279;21951;-73
2023/10/20 00:23:44;;;;;;;7.40;1.40;;;;;;;20.65;68.09;99719.55;109981;1283;22035;-70
2023/10/20 00:26:11;;;;;;;6.70;1.50;;;;;;;20.63;68.57;99716.98;109971;1273;22127;-69
2023/10/20 00:28:36;;;;;;;5.60;1.20;;;;;;;20.63;68.29;99706.48;109963;1279;21940;-71
2023/10/20 00:31:02;;;;;;;9.10;1.40;;;;;;;20.64;68.27;99705.92;109983;1280;21951;-71
2023/10/20 00:33:28;;;;;;;5.40;1.30;;;;;;;20.62;68.66;99705.34;109960;1279;21961;-59
2023/10/20 00:35:54;;;;;;;6.70;1.50;;;;;;;20.62;68.59;99699.08;109956;1279;21945;-59
2023/10/20 00:38:20;;;;;;;9.10;1.40;;;;;;;20.62;68.46;99690.13;109949;1279;21949;-60
2023/10/20 00:40:46;;;;;;;5.70;1.40;;;;;;;20.63;69.06;99683.35;109969;1273;22007;-60
2023/10/20 00:43:13;;;;;;;6.90;1.20;;;;;;;20.64;68.86;99678.09;109962;1286;21952;-72
2023/10/20 00:45:40;;;;;;;3.70;1.10;;;;;;;20.64;69.17;99676.30;109937;1279;22992;-70
2023/10/20 00:48:07;;;;;;;7.00;1.30;;;;;;;20.64;68.61;99680.58;109927;1279;21998;-59
2023/10/20 00:50:33;;;;;;;5.10;1.10;;;;;;;20.65;68.71;99683.67;109932;1284;21931;-58
2023/10/20 00:52:59;;;;;;;7.50;1.70;;;;;;;20.64;68.60;99678.80;109887;1286;21915;-59
2023/10/20 00:55:25;;;;;;;8.70;1.60;;;;;;;20.64;69.10;99676.32;109893;1276;22007;-71
2023/10/20 00:57:51;;;;;;;5.30;1.50;;;;;;;20.64;68.92;99674.35;109892;1281;21958;-70
2023/10/20 01:00:17;;;;;;;6.20;1.70;;;;;;;20.63;69.26;99676.39;109929;1279;22014;-59
2023/10/20 01:02:43;;;;;;;6.70;2.20;;;;;;;20.62;68.99;99671.65;109950;1279;21894;-71
2023/10/20 01:05:09;;;;;;;6.70;1.90;;;;;;;20.61;69.25;99666.34;109967;1279;22025;-59
2023/10/20 01:07:35;;;;;;;5.20;2.00;;;;;;;20.61;69.04;99661.56;109958;1280;21930;-59
2023/10/20 01:10:09;;;;;;;3.70;1.40;;;;;;;20.59;68.95;99661.85;109959;1279;21961;-59
2023/10/20 01:12:35;;;;;;;5.90;1.60;;;;;;;20.57;69.32;99664.10;109955;1278;21916;-71
2023/10/20 01:15:02;;;;;;;8.30;1.60;;;;;;;20.56;69.30;99666.31;109940;1285;21942;-59
2023/10/20 01:17:28;;;;;;;6.80;1.80;;;;;;;20.56;69.38;99664.73;109945;1286;21869;-59
2023/10/20 01:19:54;;;;;;;7.40;1.60;;;;;;;20.55;69.54;99661.23;109948;1286;21980;-71
2023/10/20 01:22:19;;;;;;;6.10;1.70;;;;;;;20.54;69.35;99659.48;109939;1280;21994;-71
2023/10/20 01:24:45;;;;;;;7.10;1.60;;;;;;;20.54;69.01;99659.88;109972;1279;21938;-71
2023/10/20 01:27:10;;;;;;;6.90;1.80;;;;;;;20.55;68.98;99657.33;109936;1283;22441;-71
2023/10/20 01:29:36;;;;;;;5.30;1.50;;;;;;;20.55;68.97;99659.60;109955;1283;21921;-71
2023/10/20 01:32:03;;;;;;;9.10;1.90;;;;;;;20.55;69.26;99665.50;109941;1275;21939;-59
2023/10/20 01:34:29;;;;;;;5.80;1.70;;;;;;;20.53;69.28;99657.43;109956;1276;21933;-67
2023/10/20 01:36:55;;;;;;;5.30;1.60;;;;;;;20.53;69.48;99655.30;109947;1279;21946;-71
2023/10/20 01:39:20;;;;;;;5.70;1.60;;;;;;;20.53;69.20;99657.81;109949;1280;22290;-72
2023/10/20 01:41:46;;;;;;;4.80;1.40;;;;;;;20.52;69.20;99656.64;109211;1279;1002300;-71
2023/10/20 01:44:13;;;;;;;6.30;1.80;;;;;;;20.49;69.92;99652.48;109949;1273;22080;-70
2023/10/20 01:46:39;;;;;;;3.60;1.70;;;;;;;20.49;69.90;99649.12;109988;1283;22321;-59
2023/10/20 01:49:05;;;;;;;5.50;1.70;;;;;;;20.50;69.89;99645.34;109964;1276;21962;-72
2023/10/20 01:51:31;;;;;;;5.70;1.70;;;;;;;20.51;70.45;99643.68;109956;1283;21905;-60
2023/10/20 01:53:58;;;;;;;7.70;2.30;;;;;;;20.53;70.11;99644.61;109945;1273;21862;-59
2023/10/20 01:56:23;;;;;;;7.10;2.00;;;;;;;20.53;69.86;99644.05;109961;1273;21927;-60
2023/10/20 01:58:49;;;;;;;6.10;2.00;;;;;;;20.54;70.04;99639.35;109964;1280;21934;-59
2023/10/20 02:01:15;;;;;;;9.10;2.50;;;;;;;20.56;70.22;99636.17;109969;1273;21946;-59
2023/10/20 02:03:41;;;;;;;5.30;1.50;;;;;;;20.58;70.49;99631.25;109950;1273;21950;-59
2023/10/20 02:06:07;;;;;;;7.40;2.00;;;;;;;20.59;70.61;99628.15;109953;1286;21932;-59
2023/10/20 02:08:34;;;;;;;5.90;1.60;;;;;;;20.61;70.88;99628.92;109948;1279;22010;-73
2023/10/20 02:11:00;;;;;;;6.80;2.10;;;;;;;20.63;71.07;99617.89;109970;1278;21944;-59
2023/10/20 02:13:25;;;;;;;4.90;1.40;;;;;;;20.65;70.73;99613.66;109949;1279;22014;-59
2023/10/20 02:15:51;;;;;;;4.30;1.60;;;;;;;20.68;70.20;99615.83;109944;1282;21952;-59
2023/10/20 02:18:17;;;;;;;10.10;2.00;;;;;;;20.68;69.96;99611.05;109969;1276;21942;-73
2023/10/20 02:20:43;;;;;;;4.40;1.70;;;;;;;20.68;69.90;99608.49;109963;1273;21966;-71
2023/10/20 02:23:10;;;;;;;5.90;1.90;;;;;;;20.67;70.27;99611.53;109968;1273;22306;-58
2023/10/20 02:25:36;;;;;;;7.70;2.10;;;;;;;20.65;70.82;99610.77;109961;1279;21851;-59
2023/10/20 02:28:02;;;;;;;4.90;2.00;;;;;;;20.64;71.22;99613.74;109960;1286;21994;-72
2023/10/20 02:30:30;;;;;;;3.90;1.70;;;;;;;20.61;70.76;99614.27;109976;1273;22418;-73
2023/10/20 02:32:57;;;;;;;8.10;1.70;;;;;;;20.62;70.51;99616.37;109960;1279;22101;-59
2023/10/20 02:35:23;;;;;;;5.30;1.80;;;;;;;20.62;70.45;99618.88;109962;1280;21903;-73
2023/10/20 02:37:49;;;;;;;4.90;1.70;;;;;;;20.62;70.50;99617.80;109954;1286;21998;-59
2023/10/20 02:40:14;;;;;;;7.50;2.10;;;;;;;20.61;70.73;99613.77;109967;1279;21922;-71
2023/10/20 02:42:43;;;;;;;5.20;1.80;;;;;;;20.60;71.31;99611.89;109950;1284;21935;-74
2023/10/20 02:45:10;;;;;;;7.50;2.40;;;;;;;20.60;71.42;99611.33;109966;1279;21922;-59
2023/10/20 02:47:37;;;;;;;9.20;2.00;;;;;;;20.61;71.18;99617.89;109959;1279;21917;-75
2023/10/20 02:50:03;;;;;;;9.00;2.00;;;;;;;20.60;71.01;99625.94;109945;1286;21942;-74
2023/10/20 02:52:29;;;;;;;6.30;1.90;;;;;;;20.60;70.77;99631.45;109948;1279;21842;-59
2023/10/20 02:54:54;;;;;;;7.70;2.10;;;;;;;20.60;70.92;99628.10;109933;1273;21993;-59
2023/10/20 02:57:21;;;;;;;5.60;1.80;;;;;;;20.58;70.46;99625.74;109934;1286;21924;-74
2023/10/20 02:59:50;;;;;;;5.40;1.70;;;;;;;20.56;70.65;99631.39;109924;1275;21973;-58
2023/10/20 03:02:16;;;;;;;5.70;2.00;;;;;;;20.55;70.55;99633.23;109935;1282;21936;-74
2023/10/20 03:04:42;;;;;;;8.90;1.90;;;;;;;20.54;70.49;99636.04;109933;1279;21960;-75
2023/10/20 03:07:08;;;;;;;6.70;2.00;;;;;;;20.52;70.54;99635.95;109915;1286;22398;-75
2023/10/20 03:09:35;;;;;;;7.20;1.80;;;;;;;20.50;70.99;99635.02;109930;1283;21929;-59
2023/10/20 03:12:02;;;;;;;8.50;2.40;;;;;;;20.48;70.73;99632.98;109956;1284;21972;-73
2023/10/20 03:14:29;;;;;;;5.10;2.00;;;;;;;20.47;70.66;99633.04;109903;1282;21902;-74
2023/10/20 03:16:55;;;;;;;6.50;1.90;;;;;;;20.47;70.61;99631.63;109913;1279;21931;-59
2023/10/20 03:19:22;;;;;;;5.60;1.50;;;;;;;20.48;70.65;99626.76;109914;1285;21932;-59
2023/10/20 03:21:48;;;;;;;4.60;1.80;;;;;;;20.47;70.55;99630.34;109931;1280;21998;-59
2023/10/20 03:24:13;;;;;;;7.50;1.70;;;;;;;20.47;70.53;99634.09;109954;1279;21975;-73
2023/10/20 03:26:39;;;;;;;6.90;2.10;;;;;;;20.47;70.69;99635.70;109935;1281;21917;-72
2023/10/20 03:29:05;;;;;;;7.70;1.90;;;;;;;20.47;70.74;99632.86;109927;1284;21974;-59
2023/10/20 03:31:31;;;;;;;7.40;2.00;;;;;;;20.47;70.45;99633.59;109926;1286;21948;-72
2023/10/20 03:33:57;;;;;;;7.20;1.90;;;;;;;20.48;70.24;99636.56;109926;1279;21956;-59
2023/10/20 03:36:22;;;;;;;5.30;1.60;;;;;;;20.48;70.18;99642.75;109937;1276;21942;-59
2023/10/20 03:38:49;;;;;;;6.10;1.60;;;;;;;20.49;70.09;99640.40;109939;1279;21959;-59
2023/10/20 03:41:15;;;;;;;7.50;2.00;;;;;;;20.47;69.97;99639.96;109930;1283;21935;-60
2023/10/20 03:43:41;;;;;;;6.80;2.20;;;;;;;20.45;69.94;99638.50;109944;1276;22128;-76
2023/10/20 03:46:07;;;;;;;8.00;2.30;;;;;;;20.45;70.06;99639.98;109920;1286;22394;-59
2023/10/20 03:48:34;;;;;;;5.40;1.80;;;;;;;20.42;69.96;99634.98;109918;1286;21975;-72
2023/10/20 03:51:00;;;;;;;4.80;1.90;;;;;;;20.42;70.25;99634.95;109785;1279;22059;-72
2023/10/20 03:53:39;;;;;;;7.30;2.40;;;;;;;20.44;70.38;99633.42;109769;1287;21958;-60
2023/10/20 03:56:07;;;;;;;7.20;2.50;;;;;;;20.45;70.40;99634.95;109910;1287;21993;-73
2023/10/20 03:58:37;;;;;;;6.90;1.80;;;;;;;20.47;70.70;99626.11;109915;1279;22023;-59
2023/10/20 04:01:02;;;;;;;7.00;3.30;;;;;;;20.48;70.80;99619.95;109907;1281;21960;-72
2023/10/20 04:03:32;;;;;;;11.70;3.30;;;;;;;20.49;70.75;99616.34;109909;1287;21931;-72
2023/10/20 04:05:58;;;;;;;8.70;2.40;;;;;;;20.49;70.56;99620.61;109914;1282;22468;-73
2023/10/20 04:08:24;;;;;;;11.00;2.30;;;;;;;20.49;70.58;99621.50;109908;1276;21960;-73
2023/10/20 04:10:58;;;;;;;6.00;2.20;;;;;;;20.49;70.49;99617.39;109901;1281;22004;-59
2023/10/20 04:13:24;;;;;;;6.30;2.20;;;;;;;20.49;70.46;99612.80;109905;1279;21905;-59
2023/10/20 04:15:51;;;;;;;9.20;2.70;;;;;;;20.48;70.61;99609.45;109917;1287;21996;-60
2023/10/20 04:18:17;;;;;;;6.90;2.60;;;;;;;20.48;70.56;99611.61;109901;1287;21937;-59
2023/10/20 04:20:42;;;;;;;6.20;2.30;;;;;;;20.49;70.65;99612.75;109911;1282;21982;-73
2023/10/20 04:23:08;;;;;;;8.90;2.60;;;;;;;20.49;70.98;99613.11;109907;1285;21925;-66
2023/10/20 04:25:39;;;;;;;7.40;2.50;;;;;;;20.48;71.17;99614.06;109912;1280;21933;-73
2023/10/20 04:41:54;;;;;;;8.00;2.70;;;;;;;20.54;71.15;99588.91;109899;1287;21954;-60
2023/10/20 05:02:40;;;;;;;8.10;3.00;;;;;;;20.69;71.52;99584.05;109954;1280;21938;-59
2023/10/20 05:05:22;;;;;;;9.80;2.70;;;;;;;20.72;71.58;99581.52;109965;1276;21930;-60
2023/10/20 05:07:50;;;;;;;9.40;2.50;;;;;;;20.76;71.50;99577.30;109961;1284;21948;-69
2023/10/20 05:10:20;;;;;;;12.10;2.40;;;;;;;20.80;72.10;99577.06;109190;1273;1002298;-59
2023/10/20 05:12:46;;;;;;;8.00;2.40;;;;;;;20.86;72.03;99573.63;109957;1275;21953;-70
2023/10/20 05:15:12;;;;;;;9.00;2.80;;;;;;;20.92;71.57;99570.70;109956;1286;22181;-70
2023/10/20 05:17:39;;;;;;;11.40;3.40;;;;;;;20.99;71.48;99562.05;109979;1284;21866;-70
2023/10/20 05:20:06;;;;;;;7.20;2.30;;;;;;;21.05;71.31;99562.32;109955;1286;21942;-71
2023/10/20 05:22:32;;;;;;;9.40;2.50;;;;;;;21.12;71.35;99557.77;109953;1279;21938;-59
2023/10/20 05:24:58;;;;;;;8.00;2.70;;;;;;;21.19;71.19;99563.38;109970;1279;21972;-60
2023/10/20 05:27:27;;;;;;;9.30;2.50;;;;;;;21.25;71.30;99564.90;109972;1276;21914;-70
2023/10/20 05:29:52;;;;;;;11.10;2.90;;;;;;;21.32;71.30;99563.16;109952;1283;21966;-68
2023/10/20 05:32:18;;;;;;;9.00;3.00;;;;;;;21.41;70.95;99556.69;109889;1279;22002;-59
2023/10/20 05:34:44;;;;;;;10.00;2.80;;;;;;;21.47;71.21;99555.49;109922;1286;21935;-70
2023/10/20 05:37:10;;;;;;;8.00;2.90;;;;;;;21.54;71.20;99556.09;109953;1279;21933;-65
2023/10/20 05:39:35;;;;;;;5.60;2.50;;;;;;;21.61;70.83;99557.09;109948;1286;21997;-60
2023/10/20 05:42:04;;;;;;;10.20;3.00;;;;;;;21.69;70.68;99550.60;109970;1286;21924;-59
2023/10/20 05:44:33;;;;;;;11.10;3.40;;;;;;;21.78;70.63;99550.17;109961;1273;21911;-59
2023/10/20 05:46:59;;;;;;;11.40;3.40;;;;;;;21.85;70.16;99546.08;109945;1286;21939;-60
2023/10/20 05:49:26;;;;;;;8.20;3.10;;;;;;;21.91;69.98;99544.77;109925;1286;22012;-59
2023/10/20 05:51:51;;;;;;;8.00;3.20;;;;;;;21.97;69.73;99539.15;109969;1279;21939;-72
2023/10/20 05:54:18;;;;;;;10.40;3.40;;;;;;;22.03;69.59;99537.08;109961;1273;22002;-72
2023/10/20 05:56:43;;;;;;;10.80;4.40;;;;;;;22.09;69.48;99536.50;109944;1280;21936;-60
2023/10/20 05:59:09;;;;;;;10.10;3.30;;;;;;;22.12;69.00;99539.09;109957;1273;21987;-67
2023/10/20 06:01:35;;;;;;;11.40;4.00;;;;;;;22.16;68.88;99541.33;109943;1278;21886;-72
2023/10/20 06:04:01;;;;;;;11.20;3.60;;;;;;;22.20;68.66;99536.92;109953;1286;22016;-70
2023/10/20 06:06:26;;;;;;;10.30;3.50;;;;;;;22.23;68.48;99535.64;109957;1279;22262;-71
2023/10/20 06:08:52;;;;;;;11.10;4.20;;;;;;;22.26;68.20;99534.67;109947;1280;21924;-59
2023/10/20 06:11:17;;;;;;;9.30;3.40;;;;;;;22.29;67.95;99532.84;109940;1279;21987;-72
2023/10/20 06:13:43;;;;;;;12.50;4.40;;;;;;;22.35;67.80;99527.24;109918;1279;21868;-66
2023/10/20 06:16:09;;;;;;;10.60;4.00;;;;;;;22.41;67.70;99528.72;109957;1279;21927;-60
2023/10/20 06:18:38;;;;;;;9.90;3.90;;;;;;;22.44;67.28;99530.01;109943;1286;21931;-59
2023/10/20 06:21:04;;;;;;;9.60;4.00;;;;;;;22.44;66.99;99528.73;109972;1279;21935;-59
2023/10/20 06:23:31;;;;;;;9.60;4.10;;;;;;;22.44;66.78;99528.20;109929;1273;21871;-60
2023/10/20 06:25:57;;;;;;;10.10;4.80;;;;;;;22.44;66.68;99526.23;109948;1286;22310;-60
2023/10/20 06:28:23;;;;;;;11.70;4.30;;;;;;;22.44;66.44;99530.34;109948;1286;21936;-60
2023/10/20 06:30:50;;;;;;;7.80;4.00;;;;;;;22.44;66.40;99531.96;109945;1275;21917;-59
2023/10/20 06:33:17;;;;;;;7.20;4.00;;;;;;;22.45;66.49;99539.89;109959;1286;21937;-71
2023/10/20 06:35:51;;;;;;;9.60;4.30;;;;;;;22.51;66.67;99537.86;109960;1283;21978;-71
2023/10/20 06:39:06;;;;;;;10.30;4.20;;;;;;;22.64;66.97;99537.59;109961;1283;21862;-60
2023/10/20 06:41:06;;;;;;;9.40;4.30;;;;;;;22.80;66.55;99540.31;109908;1286;21941;-72
2023/10/20 06:43:32;;;;;;;11.80;4.50;;;;;;;22.93;66.47;99532.38;109942;1286;21941;-72
2023/10/20 06:45:59;;;;;;;11.60;4.50;;;;;;;23.06;66.36;99533.49;109949;1279;21919;-60
2023/10/20 06:48:26;;;;;;;10.50;4.50;;;;;;;23.15;65.79;99533.00;109949;1286;21935;-60
2023/10/20 06:50:52;;;;;;;9.90;4.10;;;;;;;23.21;65.00;99534.28;109964;1274;21934;-60
2023/10/20 06:53:18;;;;;;;10.30;4.20;;;;;;;23.25;64.79;99523.81;109947;1286;22019;-61
2023/10/20 06:55:44;;;;;;;10.20;4.30;;;;;;;23.31;64.88;99520.81;109960;1283;22017;-72
2023/10/20 06:58:10;;;;;;;11.30;4.50;;;;;;;23.39;64.57;99514.80;109947;1279;21998;-59
2023/10/20 07:00:36;;;;;;;9.90;4.40;;;;;;;23.46;64.44;99503.57;109959;1279;21929;-61
2023/10/20 07:03:02;;;;;;;9.00;4.30;;;;;;;23.53;64.37;99508.39;109922;1286;21982;-74
2023/10/20 07:05:27;;;;;;;11.20;4.80;;;;;;;23.60;63.84;99511.34;109956;1276;21927;-60
2023/10/20 07:07:53;;;;;;;10.70;4.30;;;;;;;23.70;63.44;99511.87;109939;1273;21940;-70
2023/10/20 07:10:21;;;;;;;11.60;4.30;;;;;;;23.82;63.44;99511.40;109947;1286;21937;-60
2023/10/20 07:12:47;;;;;;;11.90;4.30;;;;;;;23.95;63.03;99509.25;109963;1275;21955;-70
2023/10/20 07:15:14;;;;;;;9.70;3.80;;;;;;;24.05;61.81;99512.56;109954;1283;21845;-60
2023/10/20 07:17:39;;;;;;;8.60;4.10;;;;;;;24.13;60.97;99509.48;109955;1279;21996;-71
2023/10/20 07:20:06;;;;;;;7.50;3.60;;;;;;;24.21;60.95;99504.83;109931;1276;21875;-71
2023/10/20 07:22:32;;;;;;;7.20;3.90;;;;;;;24.29;59.86;99494.16;109951;1283;21975;-71
2023/10/20 07:24:57;;;;;;;9.50;4.20;;;;;;;24.38;59.75;99491.27;109917;1282;21911;-73
2023/10/20 07:27:23;;;;;;;9.00;3.90;;;;;;;24.42;58.85;99489.27;109920;1285;22030;-71
2023/10/20 07:29:49;;;;;;;9.70;3.50;;;;;;;24.45;58.98;99480.05;109904;1287;22181;-70
2023/10/20 07:32:15;;;;;;;7.80;3.60;;;;;;;24.49;58.58;99480.41;109908;1283;21999;-72
2023/10/20 07:34:41;;;;;;;14.10;4.40;;;;;;;24.55;58.25;99477.61;109900;1282;21855;-60
2023/10/20 07:37:06;;;;;;;7.60;3.20;;;;;;;24.63;58.29;99484.64;109911;1281;21905;-60
2023/10/20 07:39:34;;;;;;;6.40;3.30;;;;;;;24.73;57.52;99488.50;109911;1287;21928;-59
2023/10/20 07:41:59;;;;;;;8.60;4.10;;;;;;;24.79;56.80;99483.15;109910;1287;21927;-60
2023/10/20 07:44:25;;;;;;;7.80;3.90;;;;;;;24.88;56.51;99484.50;109907;1287;21950;-60
2023/10/20 07:46:51;;;;;;;6.60;3.30;;;;;;;24.98;56.34;99483.86;109906;1285;21943;-62
2023/10/20 07:49:16;;;;;;;9.00;3.60;;;;;;;25.07;56.23;99481.48;109916;1287;22422;-60
2023/10/20 07:51:42;;;;;;;9.30;3.50;;;;;;;25.15;54.78;99481.69;109901;1287;21920;-71
2023/10/20 07:54:08;;;;;;;8.40;3.40;;;;;;;25.22;54.72;99476.73;109909;1285;22117;-70
2023/10/20 07:56:34;;;;;;;9.30;3.60;;;;;;;25.34;54.50;99475.67;109888;1287;22422;-71
2023/10/20 07:59:00;;;;;;;9.00;3.40;;;;;;;25.44;53.67;99479.55;109866;1279;22388;-60
2023/10/20 08:01:25;;;;;;;8.90;3.50;;;;;;;25.49;52.79;99483.95;109903;1287;21945;-60
2023/10/20 08:03:52;;;;;;;9.80;3.50;;;;;;;25.53;52.43;99481.36;109888;1287;21911;-60
2023/10/20 08:06:21;;;;;;;9.60;3.50;;;;;;;25.65;52.69;99478.54;109886;1287;21952;-70
2023/10/20 08:08:47;;;;;;;6.90;3.10;;;;;;;25.80;52.21;99478.80;109908;1284;21928;-70
2023/10/20 08:11:13;;;;;;;6.20;3.20;;;;;;;25.86;51.56;99469.63;109153;1287;1002038;-71
2023/10/20 08:13:38;;;;;;;9.10;3.90;;;;;;;25.92;52.09;99466.80;109937;1287;21967;-71
2023/10/20 08:16:05;;;;;;;7.30;3.60;;;;;;;25.98;51.64;99466.39;109898;1285;22066;-60
2023/10/20 08:18:34;;;;;;;11.90;3.80;;;;;;;26.10;51.40;99457.05;109916;1276;21941;-62
2023/10/20 08:21:07;;;;;;;10.50;3.60;;;;;;;26.20;50.27;99455.64;109902;1281;21942;-73
2023/10/20 08:23:37;;;;;;;9.00;3.20;;;;;;;26.29;49.54;99454.42;109916;1286;21926;-71
2023/10/20 08:26:03;;;;;;;6.60;3.10;;;;;;;26.34;49.17;99458.45;109915;1279;21946;-70
2023/10/20 08:28:29;;;;;;;8.30;3.10;;;;;;;26.38;49.05;99453.80;109890;1284;21946;-70
2023/10/20 08:31:08;;;;;;;8.40;3.20;;;;;;;26.39;47.60;99458.56;109968;1283;21950;-67
2023/10/20 08:33:38;;;;;;;9.10;3.60;;;;;;;26.43;48.22;99447.71;109982;1273;21928;-69
2023/10/20 08:36:14;;;;;;;9.00;3.20;;;;;;;26.53;48.16;99448.60;109976;1285;21883;-68
2023/10/20 08:38:41;;;;;;;11.40;3.10;;;;;;;26.69;48.01;99447.83;109969;1279;21862;-67
2023/10/20 08:41:16;;;;;;;6.50;3.30;;;;;;;26.77;48.36;99446.93;109940;1284;21938;-69
2023/10/20 08:43:43;;;;;;;9.10;3.20;;;;;;;26.83;48.30;99440.44;109890;1286;21964;-68
2023/10/20 08:46:10;;;;;;;10.40;3.30;;;;;;;26.86;47.58;99441.58;109824;1283;21970;-69
2023/10/20 08:48:41;;;;;;;8.30;3.20;;;;;;;26.88;47.76;99443.79;109911;1286;22009;-58
2023/10/20 08:51:08;;;;;;;8.40;3.10;;;;;;;26.92;47.49;99449.14;109922;1286;22314;-59
2023/10/20 08:53:34;;;;;;;5.10;2.70;;;;;;;26.98;46.83;99455.02;109926;1286;22418;-59
2023/10/20 08:56:01;;;;;;;11.10;3.10;;;;;;;27.06;47.40;99457.34;109819;1283;22007;-68
2023/10/20 08:58:29;;;;;;;5.90;2.90;;;;;;;27.18;47.33;99456.30;109950;1285;21930;-59
2023/10/20 09:00:55;;;;;;;6.90;2.90;;;;;;;27.34;46.58;99452.30;109921;1286;22014;-59
2023/10/20 09:03:21;;;;;;;10.20;3.50;;;;;;;27.42;45.88;99446.28;109929;1286;22007;-69
2023/10/20 09:05:46;;;;;;;7.20;2.90;;;;;;;27.51;45.54;99446.52;109906;1286;22087;-67
2023/10/20 09:08:12;;;;;;;7.70;2.70;;;;;;;27.57;44.93;99450.48;109829;1286;21946;-59
2023/10/20 09:10:46;;;;;;;5.40;2.80;;;;;;;27.62;45.05;99450.15;109934;1273;21929;-59
2023/10/20 09:13:12;;;;;;;7.00;3.10;;;;;;;27.70;44.42;99449.02;109937;1284;21955;-68
2023/10/20 09:15:38;;;;;;;5.50;2.60;;;;;;;27.76;44.18;99442.13;109908;1286;22004;-68
2023/10/20 09:18:08;;;;;;;4.90;2.80;;;;;;;27.81;44.55;99441.06;109918;1286;21992;-69
2023/10/20 09:20:34;;;;;;;6.70;3.10;;;;;;;27.82;43.84;99440.80;109944;1285;22348;-59
2023/10/20 09:23:00;;;;;;;8.30;2.80;;;;;;;27.92;44.05;99433.46;109917;1286;21998;-59
2023/10/20 09:25:26;;;;;;;6.90;2.90;;;;;;;28.06;43.82;99423.75;109944;1281;21929;-59
2023/10/20 09:27:52;;;;;;;7.60;2.80;;;;;;;28.11;42.90;99422.54;109923;1283;22160;-69
2023/10/20 09:30:18;;;;;;;9.60;3.40;;;;;;;28.13;43.55;99420.21;109917;1285;22002;-59
2023/10/20 09:32:44;;;;;;;6.80;2.90;;;;;;;28.20;43.10;99420.93;109909;1276;21992;-67
2023/10/20 09:35:10;;;;;;;11.00;3.30;;;;;;;28.24;42.95;99421.80;109921;1286;21983;-59
2023/10/20 09:37:36;;;;;;;6.90;3.80;;;;;;;28.28;42.13;99421.21;109930;1286;21944;-60
2023/10/20 09:40:11;;;;;;;5.60;2.90;;;;;;;28.37;42.39;99424.47;109903;1286;21971;-59
2023/10/20 09:43:08;;;;;;;7.70;2.70;;;;;;;28.40;41.37;99417.71;109872;1286;22380;-70
2023/10/20 09:45:33;;;;;;;12.90;3.60;;;;;;;28.46;41.39;99416.66;109923;1276;22709;-69
2023/10/20 09:48:06;;;;;;;8.90;4.20;;;;;;;28.54;41.69;99414.73;109853;1286;21984;-68
2023/10/20 09:50:32;;;;;;;6.40;2.70;;;;;;;28.66;41.93;99419.31;109921;1286;22439;-68
2023/10/20 09:52:59;;;;;;;8.20;3.40;;;;;;;28.70;40.86;99421.61;109855;1286;21973;-69
2023/10/20 09:55:25;;;;;;;8.00;2.90;;;;;;;28.76;41.18;99416.12;109923;1286;21933;-59
2023/10/20 09:57:51;;;;;;;5.20;2.60;;;;;;;28.89;40.93;99411.69;109938;1276;21985;-59
2023/10/20 10:00:28;;;;;;;7.10;3.00;;;;;;;28.95;39.59;99411.50;109863;1286;21953;-59
2023/10/20 10:02:58;;;;;;;7.20;3.00;;;;;;;28.92;39.77;99405.79;109923;1286;22013;-59
2023/10/20 10:05:24;;;;;;;14.00;3.20;;;;;;;28.95;39.98;99404.41;109922;1286;22001;-60
2023/10/20 10:08:03;;;;;;;4.70;2.40;;;;;;;29.01;40.31;99400.54;109887;1276;21952;-59
2023/10/20 10:10:28;;;;;;;3.60;2.30;;;;;;;29.07;39.50;99401.89;109930;1286;21970;-59
2023/10/20 10:12:59;;;;;;;6.70;2.60;;;;;;;29.14;39.74;99398.70;109919;1280;21974;-68
2023/10/20 10:15:36;;;;;;;7.30;3.30;;;;;;;29.17;39.64;99389.89;109919;1279;21950;-64
2023/10/20 10:18:10;;;;;;;8.30;3.10;;;;;;;29.19;39.32;99380.63;109916;1286;21873;-68
2023/10/20 10:20:45;;;;;;;6.80;2.30;;;;;;;29.33;39.61;99375.23;109938;1283;21984;-67
2023/10/20 10:23:12;;;;;;;7.70;2.70;;;;;;;29.49;39.04;99365.32;109890;1282;21926;-67
2023/10/20 10:25:40;;;;;;;8.60;2.50;;;;;;;29.57;38.91;99355.30;109921;1279;21968;-59
2023/10/20 10:28:12;;;;;;;8.10;2.60;;;;;;;29.65;39.01;99350.40;109907;1286;21950;-59
2023/10/20 10:30:39;;;;;;;6.60;2.90;;;;;;;29.69;38.37;99351.97;109875;1287;21969;-67
2023/10/20 10:33:11;;;;;;;7.60;2.90;;;;;;;29.73;38.00;99348.65;109908;1281;22018;-59
2023/10/20 10:35:40;;;;;;;8.20;3.40;;;;;;;29.77;38.15;99350.42;109910;1276;21954;-68
2023/10/20 10:38:20;;;;;;;7.90;3.20;;;;;;;29.65;37.69;99347.69;109918;1282;21938;-67
2023/10/20 10:40:46;;;;;;;7.80;2.90;;;;;;;29.53;37.80;99345.98;109906;1281;21991;-59
2023/10/20 10:43:16;;;;;;;4.90;2.80;;;;;;;29.36;37.42;99348.82;109905;1287;21957;-59
2023/10/20 10:45:42;;;;;;;5.30;2.70;;;;;;;29.21;37.31;99356.75;109909;1286;21964;-59
2023/10/20 10:48:12;;;;;;;6.30;2.50;;;;;;;29.15;37.44;99358.64;109947;1286;21936;-59
2023/10/20 10:50:40;;;;;;;7.50;2.50;;;;;;;29.13;36.99;99357.80;109938;1286;22005;-64
2023/10/20 10:53:06;;;;;;;6.00;2.70;;;;;;;29.20;37.08;99354.90;109869;1287;21952;-67
2023/10/20 10:55:35;;;;;;;5.20;2.70;;;;;;;29.29;37.39;99361.33;109902;1287;21918;-59
2023/10/20 10:58:05;;;;;;;8.70;2.70;;;;;;;29.32;36.75;99364.65;109914;1287;21964;-59
2023/10/20 11:00:31;;;;;;;8.70;3.10;;;;;;;29.29;36.64;99363.33;109896;1287;21883;-65
2023/10/20 11:02:57;;;;;;;6.50;2.50;;;;;;;29.31;36.96;99358.96;109892;1280;21955;-59
2023/10/20 11:05:22;;;;;;;6.90;2.70;;;;;;;29.34;37.35;99364.35;109913;1281;22366;-59
2023/10/20 11:08:01;;;;;;;6.20;2.60;;;;;;;29.38;37.23;99360.54;109899;1287;21949;-68
2023/10/20 11:10:27;;;;;;;6.20;2.90;;;;;;;29.49;36.94;99356.08;109906;1287;21913;-59
2023/10/20 11:12:56;;;;;;;7.60;2.60;;;;;;;29.61;36.75;99361.92;109901;1287;21947;-59
2023/10/20 11:15:28;;;;;;;3.90;2.60;;;;;;;29.66;36.43;99360.06;109904;1285;22024;-67
2023/10/20 11:17:58;;;;;;;8.50;3.40;;;;;;;29.74;36.93;99355.09;109892;1286;21983;-67
2023/10/20 11:20:24;;;;;;;9.00;3.40;;;;;;;29.89;36.94;99358.68;109920;1287;22376;-67
2023/10/20 11:22:56;;;;;;;7.70;3.00;;;;;;;30.02;36.68;99362.80;109893;1287;21967;-67
2023/10/20 11:25:22;;;;;;;4.30;2.20;;;;;;;30.10;36.08;99368.46;109914;1287;21846;-66
2023/10/20 11:27:54;;;;;;;5.00;2.90;;;;;;;30.14;35.90;99370.58;109784;1287;167119;-67
2023/10/20 11:30:28;;;;;;;4.70;2.80;;;;;;;30.15;35.94;99373.92;109926;1286;22412;-59
2023/10/20 11:32:54;;;;;;;5.60;2.90;;;;;;;30.18;36.81;99377.42;109910;1287;21961;-59
2023/10/20 11:35:26;;;;;;;8.90;2.60;;;;;;;30.23;36.07;99381.05;109927;1287;22097;-59
2023/10/20 11:37:53;;;;;;;4.80;2.70;;;;;;;30.31;35.84;99381.75;109916;1287;22000;-68
2023/10/20 11:40:19;;;;;;;9.00;3.60;;;;;;;30.40;35.20;99386.21;109914;1287;21924;-68
2023/10/20 11:42:45;;;;;;;7.80;3.00;;;;;;;30.45;35.51;99387.13;109917;1279;21937;-59
2023/10/20 11:45:10;;;;;;;8.80;3.00;;;;;;;30.47;35.51;99381.84;109924;1287;21866;-67
2023/10/20 11:47:37;;;;;;;7.20;2.70;;;;;;;30.49;35.36;99380.70;109913;1276;21936;-68
2023/10/20 11:50:04;;;;;;;4.70;2.60;;;;;;;30.52;35.55;99375.22;109894;1287;22021;-67
2023/10/20 11:52:30;;;;;;;6.60;3.00;;;;;;;30.57;35.34;99375.85;109914;1276;21870;-68
2023/10/20 11:54:56;;;;;;;4.80;2.90;;;;;;;30.62;35.75;99373.30;109909;1281;21926;-62
2023/10/20 11:57:21;;;;;;;5.00;2.60;;;;;;;30.66;35.80;99370.30;109890;1287;21937;-67